ETNL/RLG METAR and TAF weather

Enter ICAO airport designator
Station Type Date Time Source
ETNL METAR 2018/10/16 20:20 UTC NOAA

ETNL 162020Z 00000KT 9999 VCFG MIFG 12/12 Q1019 BLU+


Station Type Date Time Source
ETNL Decoded METAR 2018/10/16 20:20 UTC NOAA

Laage, Germany (ETNL) 53-55N 012-17E 46M
Oct 16, 2018 - 04:20 PM EDT / 2018.10.16 2020 UTC
Wind: Calm:0
Visibility: greater than 7 mile(s):0
Weather: fog in the vicinity; shallow fog
Temperature: 53 F (12 C)
Dew Point: 53 F (12 C)
Relative Humidity: 100%
Pressure (altimeter): 30.09 in. Hg (1019 hPa)
ob: ETNL 162020Z 00000KT 9999 VCFG MIFG 12/12 Q1019 BLU+
cycle: 20

Station Type Date Time Source
ETNL TAF 2018/09/19 17:36 UTC NOAA

TAF ETNL 191605Z 1917/2005 22010KT 9999 NSW SCT300 BY ETGL


Example: see airport list